Delmar, Alabama
Current Conditions -  °F | °C
As of 4:56 PM on Saturday 20 Dec 2014 (Local Time) from K1M4 Reporting Station
Clear Clear  
Wind Chill:   Ceiling: Unl
Heat Index:   Visibility: 10mi
Dew Point:   Wind: 0mph
Humidity: 60%   Direction: NA
Pressure: 30.21"   Gusts: NA
Location:  34.17°N, 87.61°W
Report Text: K1M4 202256Z AUTO 00000KT 10SM CLR 07/00 A3021 RMK AO2 T00720000 SLP239 $
Loading
Personal Weather Stations






























Interactive Weather Map New forecast layout! Learn more

10-Day Weather Forecast

Advertisements
Track Severe Weather on mobile